createdAt,value
2022-09-23T00:01:38.664Z,74.31
2022-09-23T00:05:39.883Z,74.19
2022-09-23T00:09:39.825Z,74.12
2022-09-23T00:13:43.530Z,75.31
2022-09-23T00:17:43.436Z,76.03
2022-09-23T00:21:43.174Z,76.06
2022-09-23T00:25:42.911Z,76.29
2022-09-23T00:29:45.077Z,76.48
2022-09-23T00:33:44.881Z,76.48
2022-09-23T00:37:44.526Z,76.18
2022-09-23T00:41:45.353Z,75.87
2022-09-23T00:45:50.719Z,75.23
2022-09-23T00:49:55.981Z,75.09
2022-09-23T00:53:55.606Z,73.64
2022-09-23T00:57:58.587Z,72.17
2022-09-23T01:02:02.245Z,70.89
2022-09-23T01:06:02.305Z,71.06
2022-09-23T01:10:03.320Z,71.86
2022-09-23T01:14:16.692Z,73.29
2022-09-23T01:18:29.686Z,74.50
2022-09-23T01:22:37.598Z,75.07
2022-09-23T01:27:00.747Z,74.73
2022-09-23T01:31:08.129Z,75.44
2022-09-23T01:35:16.540Z,75.23
2022-09-23T01:39:24.206Z,74.30
2022-09-23T01:43:29.898Z,75.21
2022-09-23T01:47:37.598Z,75.85
2022-09-23T01:51:40.706Z,74.77
2022-09-23T01:55:44.122Z,74.26
2022-09-23T01:59:48.823Z,73.88
2022-09-23T02:03:58.924Z,74.05
2022-09-23T02:08:02.959Z,74.35
2022-09-23T02:12:06.919Z,74.05
2022-09-23T02:16:26.817Z,74.23
2022-09-23T02:20:32.373Z,74.19
2022-09-23T02:24:34.346Z,74.78
2022-09-23T02:28:41.607Z,76.01
2022-09-23T02:32:50.608Z,75.75
2022-09-23T02:37:05.511Z,75.72
2022-09-23T02:41:11.579Z,76.54
2022-09-23T02:45:11.588Z,76.99
2022-09-23T02:49:15.860Z,78.17
2022-09-23T02:53:18.240Z,79.13
2022-09-23T02:57:17.933Z,80.17
2022-09-23T03:01:31.144Z,81.35
2022-09-23T03:05:33.460Z,80.51
2022-09-23T03:09:40.943Z,79.90
2022-09-23T03:13:52.985Z,79.57
2022-09-23T03:17:59.451Z,80.26
2022-09-23T03:22:06.076Z,80.84
2022-09-23T03:26:14.346Z,81.07
2022-09-23T03:30:16.048Z,80.31
2022-09-23T03:34:23.285Z,80.55
2022-09-23T03:38:29.957Z,82.67
2022-09-23T03:42:33.875Z,83.10
2022-09-23T03:46:35.149Z,81.92
2022-09-23T03:50:39.119Z,80.92
2022-09-23T03:54:38.842Z,80.95
2022-09-23T03:58:40.654Z,80.18
2022-09-23T04:02:40.802Z,80.35
2022-09-23T04:06:40.406Z,80.81
2022-09-23T04:10:43.300Z,81.31
2022-09-23T04:14:45.518Z,81.99
2022-09-23T04:18:46.701Z,82.52
2022-09-23T04:22:46.493Z,82.31
2022-09-23T04:26:46.212Z,81.08
2022-09-23T04:30:50.018Z,80.96
2022-09-23T04:34:49.833Z,80.77
2022-09-23T04:38:49.843Z,81.35
2022-09-23T04:42:50.042Z,81.19
2022-09-23T04:46:52.049Z,80.94
2022-09-23T04:50:52.068Z,80.15
2022-09-23T04:54:51.822Z,79.07
2022-09-23T04:58:52.756Z,77.79
2022-09-23T05:02:54.832Z,76.99
2022-09-23T05:06:54.565Z,75.88
2022-09-23T05:10:58.979Z,73.72
2022-09-23T05:14:59.282Z,72.43
2022-09-23T05:19:00.872Z,72.24
2022-09-23T05:23:01.033Z,73.91
2022-09-23T05:27:00.782Z,74.71
2022-09-23T05:31:05.114Z,73.92
2022-09-23T05:35:07.785Z,73.58
2022-09-23T05:39:08.912Z,72.93
2022-09-23T05:43:08.992Z,73.16
2022-09-23T05:47:11.771Z,72.52
2022-09-23T05:51:16.959Z,71.86
2022-09-23T05:55:16.467Z,72.29
2022-09-23T05:59:16.234Z,69.73
2022-09-23T06:03:17.774Z,68.88
2022-09-23T06:07:19.631Z,66.90
2022-09-23T06:11:21.150Z,64.77
2022-09-23T06:15:21.445Z,67.31
2022-09-23T06:19:21.158Z,66.24
2022-09-23T06:23:25.905Z,64.00
2022-09-23T06:27:26.477Z,62.78
2022-09-23T06:31:26.259Z,63.49
2022-09-23T06:35:32.336Z,63.45
2022-09-23T06:39:36.786Z,64.13
2022-09-23T06:43:36.570Z,63.96
2022-09-23T06:47:37.499Z,64.37
2022-09-23T06:51:37.249Z,62.50
2022-09-23T06:55:39.153Z,62.51
2022-09-23T06:59:38.938Z,63.44
2022-09-23T07:03:40.712Z,67.08
2022-09-23T07:09:05.372Z,74.03
2022-09-23T07:20:04.229Z,84.27
2022-09-23T07:21:19.590Z,81.94
2022-09-23T07:24:50.593Z,84.40
2022-09-23T07:44:53.408Z,83.91
2022-09-23T07:49:26.858Z,83.96
2022-09-23T07:53:59.382Z,84.81
2022-09-23T07:58:28.970Z,82.45
2022-09-23T08:02:50.772Z,81.27
2022-09-23T08:07:01.641Z,82.13
2022-09-23T08:11:08.701Z,82.95
2022-09-23T08:15:12.918Z,84.43
2022-09-23T08:19:18.083Z,83.78
2022-09-23T08:23:22.249Z,84.20
2022-09-23T08:27:26.439Z,86.00
2022-09-23T08:31:31.149Z,85.16
2022-09-23T08:35:41.951Z,85.81
2022-09-23T08:39:48.281Z,84.22
2022-09-23T08:43:54.825Z,83.81
2022-09-23T08:48:00.021Z,82.96
2022-09-23T08:52:10.870Z,80.66
2022-09-23T08:56:16.693Z,77.54
2022-09-23T09:00:22.474Z,76.75
2022-09-23T09:04:27.264Z,76.80
2022-09-23T09:08:34.637Z,75.83
2022-09-23T09:12:43.092Z,75.65
2022-09-23T09:17:02.863Z,76.77
2022-09-23T09:21:13.399Z,74.79
2022-09-23T09:25:32.095Z,73.92
2022-09-23T09:29:39.723Z,75.24
2022-09-23T09:33:57.600Z,76.65
2022-09-23T09:37:57.215Z,76.61
2022-09-23T09:41:59.224Z,74.57
2022-09-23T09:46:13.803Z,75.85
2022-09-23T09:50:21.713Z,75.72
2022-09-23T09:54:26.453Z,73.17
2022-09-23T09:58:34.535Z,72.64
2022-09-23T10:02:38.719Z,73.45
2022-09-23T10:06:38.471Z,71.51
2022-09-23T10:10:38.095Z,69.80
2022-09-23T10:14:39.730Z,69.76
2022-09-23T10:18:50.089Z,70.66
2022-09-23T10:22:49.979Z,68.06
2022-09-23T10:26:56.678Z,68.10
2022-09-23T10:31:09.519Z,67.15
2022-09-23T10:35:18.341Z,66.10
2022-09-23T10:39:34.259Z,67.21
2022-09-23T10:44:00.828Z,65.52
2022-09-23T10:48:14.110Z,63.03
2022-09-23T10:52:28.541Z,62.50
2022-09-23T10:56:37.268Z,56.11
2022-09-23T11:00:47.741Z,58.90
2022-09-23T11:05:22.179Z,57.62
2022-09-23T11:09:40.183Z,56.79
2022-09-23T11:14:03.562Z,52.08
2022-09-23T11:18:45.891Z,50.63
2022-09-23T11:23:09.271Z,50.06
2022-09-23T11:27:19.951Z,49.56
2022-09-23T11:31:34.727Z,49.03
2022-09-23T11:35:45.053Z,50.85
2022-09-23T11:39:54.064Z,48.37
2022-09-23T11:44:02.873Z,48.05
2022-09-23T11:48:07.610Z,47.89
2022-09-23T11:52:13.922Z,47.68
2022-09-23T11:56:33.457Z,46.42
2022-09-23T12:00:39.651Z,47.01
2022-09-23T12:04:54.422Z,45.66
2022-09-23T12:09:01.232Z,45.62
2022-09-23T12:13:09.982Z,46.37
2022-09-23T12:17:21.527Z,45.24
2022-09-23T12:21:50.387Z,46.02
2022-09-23T12:25:57.497Z,44.29
2022-09-23T12:30:04.143Z,43.73
2022-09-23T12:34:20.260Z,44.46
2022-09-23T12:38:24.709Z,43.01
2022-09-23T12:42:30.145Z,43.23
2022-09-23T12:46:32.134Z,43.25
2022-09-23T12:50:53.109Z,44.08
2022-09-23T12:54:53.997Z,43.54
2022-09-23T12:59:02.776Z,42.41
2022-09-23T13:03:20.789Z,41.54
2022-09-23T13:07:25.842Z,42.98
2022-09-23T13:11:31.596Z,43.13
2022-09-23T13:15:33.766Z,41.56
2022-09-23T13:19:59.965Z,42.99
2022-09-23T13:24:21.641Z,43.22
2022-09-23T13:28:41.230Z,41.57
2022-09-23T13:32:47.143Z,41.07
2022-09-23T13:36:49.638Z,39.83
2022-09-23T13:40:49.401Z,38.86
2022-09-23T13:44:49.029Z,38.58
2022-09-23T13:48:50.844Z,38.14
2022-09-23T13:52:57.271Z,37.89
2022-09-23T13:56:58.003Z,38.14
2022-09-23T14:00:57.679Z,38.35
2022-09-23T14:04:59.532Z,38.74
2022-09-23T14:09:04.305Z,37.57
2022-09-23T14:13:04.025Z,37.57
2022-09-23T14:17:03.367Z,38.01
2022-09-23T14:21:03.409Z,38.05
2022-09-23T14:25:05.408Z,38.23
2022-09-23T14:29:04.730Z,38.40
2022-09-23T14:33:08.530Z,37.49
2022-09-23T14:37:34.699Z,37.68
2022-09-23T14:41:40.278Z,38.93
2022-09-23T14:45:45.383Z,39.28
2022-09-23T14:50:10.414Z,39.45
2022-09-23T14:54:33.269Z,39.54
2022-09-23T14:58:49.498Z,40.21
2022-09-23T15:03:01.035Z,42.83
2022-09-23T15:07:06.323Z,45.31
2022-09-23T15:11:08.358Z,46.01
2022-09-23T15:15:18.039Z,57.61
2022-09-23T15:19:21.803Z,64.84
2022-09-23T15:23:46.451Z,71.14
2022-09-23T15:27:58.652Z,68.45
2022-09-23T15:32:01.201Z,69.39
2022-09-23T15:36:01.444Z,72.11
2022-09-23T15:40:01.512Z,76.04
2022-09-23T15:44:07.022Z,79.39
2022-09-23T15:48:14.875Z,81.47
2022-09-23T15:52:22.731Z,82.68
2022-09-23T15:56:27.151Z,86.45
2022-09-23T16:00:26.446Z,84.73
2022-09-23T16:04:31.258Z,85.16
2022-09-23T16:08:37.297Z,85.01
2022-09-23T16:12:37.313Z,88.89
2022-09-23T16:16:36.785Z,82.54
2022-09-23T16:20:51.679Z,76.50
2022-09-23T16:24:51.486Z,77.62
2022-09-23T16:28:51.400Z,74.63
2022-09-23T16:32:51.352Z,74.14
2022-09-23T16:36:53.240Z,74.19
2022-09-23T16:40:53.294Z,76.91
2022-09-23T16:44:53.102Z,78.04
2022-09-23T16:48:53.441Z,80.86
2022-09-23T16:52:56.878Z,82.06
2022-09-23T16:56:58.525Z,82.82
2022-09-23T17:01:17.933Z,83.05
2022-09-23T17:05:19.019Z,82.55
2022-09-23T17:09:21.784Z,82.72
2022-09-23T17:13:21.523Z,83.62
2022-09-23T17:17:21.711Z,84.80
2022-09-23T17:21:21.309Z,85.14
2022-09-23T17:25:23.084Z,85.82
2022-09-23T17:29:26.471Z,87.43
2022-09-23T17:33:26.197Z,87.48
2022-09-23T17:37:26.000Z,85.86
2022-09-23T17:41:27.880Z,87.72
2022-09-23T17:45:27.739Z,88.31
2022-09-23T17:49:27.405Z,86.97
2022-09-23T17:53:28.467Z,85.57
2022-09-23T17:57:30.266Z,84.80
2022-09-23T18:01:30.823Z,81.33
2022-09-23T18:05:30.803Z,82.07
2022-09-23T18:09:30.345Z,81.55
2022-09-23T18:13:31.482Z,81.51
2022-09-23T18:17:30.978Z,82.76
2022-09-23T18:21:32.254Z,83.40
2022-09-23T18:25:41.139Z,83.49
2022-09-23T18:29:42.843Z,84.24
2022-09-23T18:33:43.372Z,83.82
2022-09-23T18:37:42.890Z,82.82
2022-09-23T18:41:42.571Z,83.20
2022-09-23T18:45:44.205Z,83.54
2022-09-23T18:50:00.283Z,83.84
2022-09-23T18:54:01.998Z,84.79
2022-09-23T18:58:01.627Z,84.87
2022-09-23T19:02:02.783Z,83.99
2022-09-23T19:06:08.112Z,82.60
2022-09-23T19:10:08.724Z,83.73
2022-09-23T19:14:11.627Z,83.61
2022-09-23T19:18:13.415Z,83.96
2022-09-23T19:22:16.019Z,84.84
2022-09-23T19:26:23.834Z,84.39
2022-09-23T19:30:27.510Z,84.59
2022-09-23T19:34:30.385Z,86.24
2022-09-23T19:38:29.908Z,85.20
2022-09-23T19:42:29.696Z,85.57
2022-09-23T19:46:29.346Z,85.55
2022-09-23T19:50:34.234Z,83.54
2022-09-23T19:54:33.754Z,85.09
2022-09-23T19:58:32.761Z,85.59
2022-09-23T20:02:32.347Z,85.76
2022-09-23T20:06:37.574Z,84.80
2022-09-23T20:10:40.075Z,85.29
2022-09-23T20:14:39.919Z,80.68
2022-09-23T20:18:39.357Z,77.59
2022-09-23T20:22:41.215Z,77.43
2022-09-23T20:26:56.887Z,76.14
2022-09-23T20:31:00.146Z,75.59
2022-09-23T20:35:00.601Z,75.77
2022-09-23T20:39:05.375Z,74.35
2022-09-23T20:43:05.473Z,74.53
2022-09-23T20:47:05.169Z,75.10
2022-09-23T20:51:05.785Z,75.46
2022-09-23T20:55:09.112Z,76.22
2022-09-23T20:59:08.855Z,76.68
2022-09-23T21:03:08.623Z,78.03
2022-09-23T21:07:08.330Z,78.66
2022-09-23T21:11:12.867Z,79.47
2022-09-23T21:15:13.104Z,79.00
2022-09-23T21:19:12.789Z,79.29
2022-09-23T21:23:12.318Z,80.08
2022-09-23T21:27:14.274Z,81.20
2022-09-23T21:31:22.207Z,80.09
2022-09-23T21:35:22.094Z,78.28
2022-09-23T21:39:21.922Z,76.57
2022-09-23T21:43:24.011Z,76.60
2022-09-23T21:47:23.109Z,75.17
2022-09-23T21:51:25.318Z,72.83
2022-09-23T21:55:25.131Z,72.13
2022-09-23T21:59:27.157Z,71.77
2022-09-23T22:03:27.309Z,69.85
2022-09-23T22:07:26.838Z,68.88
2022-09-23T22:11:44.027Z,69.65
2022-09-23T22:15:45.775Z,70.48
2022-09-23T22:19:47.329Z,70.33
2022-09-23T22:23:47.069Z,70.28
2022-09-23T22:27:59.437Z,70.73
2022-09-23T22:32:17.773Z,70.71
2022-09-23T22:36:18.861Z,70.64
2022-09-23T22:40:18.782Z,69.84
2022-09-23T22:44:19.267Z,69.93
2022-09-23T22:48:21.239Z,68.97
2022-09-23T22:52:23.905Z,67.56
2022-09-23T22:56:23.837Z,71.21
2022-09-23T23:00:23.546Z,73.88
2022-09-23T23:04:24.934Z,73.64
2022-09-23T23:08:24.678Z,74.77
2022-09-23T23:12:24.329Z,75.35
2022-09-23T23:16:26.079Z,74.92
2022-09-23T23:20:28.189Z,74.97
2022-09-23T23:24:28.195Z,75.64
2022-09-23T23:28:27.230Z,75.82
2022-09-23T23:32:26.875Z,76.65
2022-09-23T23:36:30.478Z,77.05
2022-09-23T23:40:29.752Z,77.91
2022-09-23T23:44:30.760Z,77.12
2022-09-23T23:48:34.122Z,77.21
2022-09-23T23:52:35.926Z,76.49
2022-09-23T23:56:36.017Z,76.98
